Sulphur Springs, Ohio
Current Conditions -  °F | °C
As of 5:52 PM on Thursday 18 Dec 2014 (Local Time) from KMFD Reporting Station
Overcast Overcast  
Wind Chill: 20°   Ceiling: 1100
Heat Index: 27°   Visibility: 10mi
Dew Point: 23°   Wind: 6mph
Humidity: 85%   Direction: 240°WSW
Pressure: 30.16"   Gusts: NA
Location:  40.87°N, 82.88°W
Report Text: KMFD 182252Z 24005KT 10SM OVC011 M03/M05 A3016 RMK AO2 SLP229 T10281050
Loading
Personal Weather Stations






























Interactive Weather Map New forecast layout! Learn more

10-Day Weather Forecast

Advertisements
Track Severe Weather on mobile